Time;durP1;ratioP1;P1;durP2;ratioP2;P2;SDS_P1;SDS_P2;PMS_P1;PMS_P2;Temp;Humidity;BMP_temperature;BMP_pressure;BME280_temperature;BME280_humidity;BME280_pressure;Samples;Min_cycle;Max_cycle;Signal;HPM_P1;HPM_P2
2021/01/02 00:00:15;;;;;;;45.83;29.90;;;6.00;99.90;;;;;;5033658;28;20668;-70
2021/01/02 00:03:17;;;;;;;44.90;30.03;;;6.00;99.90;;;;;;5031754;28;20641;-70
2021/01/02 00:06:09;;;;;;;41.77;29.00;;;6.00;99.90;;;;;;5037009;28;20625;-70
2021/01/02 00:09:05;;;;;;;37.77;28.20;;;6.00;99.90;;;;;;5035950;28;20610;-70
2021/01/02 00:12:13;;;;;;;43.43;29.90;;;6.00;99.90;;;;;;5023696;28;20754;-70
2021/01/02 00:15:08;;;;;;;41.40;29.13;;;5.90;99.90;;;;;;5027033;28;21118;-70
2021/01/02 00:18:07;;;;;;;39.83;27.57;;;5.90;99.90;;;;;;5026863;28;20621;-70
2021/01/02 00:21:25;;;;;;;41.43;26.60;;;5.90;99.90;;;;;;5035520;28;20657;-71
2021/01/02 00:24:28;;;;;;;38.70;29.17;;;6.00;99.90;;;;;;5024704;28;20732;-70
2021/01/02 00:27:32;;;;;;;44.97;29.37;;;6.00;99.90;;;;;;5044331;28;20612;-70
2021/01/02 00:30:28;;;;;;;42.23;28.87;;;5.90;99.90;;;;;;5025371;28;20673;-70
2021/01/02 00:33:17;;;;;;;40.00;27.80;;;6.00;99.90;;;;;;5041093;28;20654;-70
2021/01/02 00:36:19;;;;;;;38.90;27.40;;;5.90;99.90;;;;;;5034645;28;20602;-70
2021/01/02 00:39:06;;;;;;;36.80;25.97;;;5.90;99.90;;;;;;5020288;28;20646;-70
2021/01/02 00:41:52;;;;;;;37.83;27.13;;;6.00;99.90;;;;;;5036509;28;20569;-70
2021/01/02 00:44:42;;;;;;;38.50;27.10;;;6.00;99.90;;;;;;5042725;28;21270;-70
2021/01/02 00:47:28;;;;;;;38.63;27.17;;;5.90;99.90;;;;;;5026275;28;20605;-70
2021/01/02 00:50:17;;;;;;;39.43;26.80;;;5.80;99.90;;;;;;5024787;28;21467;-70
2021/01/02 00:53:46;;;;;;;38.63;26.40;;;5.80;99.90;;;;;;5031865;28;20633;-70
2021/01/02 00:57:14;;;;;;;37.20;25.90;;;5.80;99.90;;;;;;5020295;28;20620;-71
2021/01/02 01:00:05;;;;;;;40.93;27.50;;;5.80;99.90;;;;;;5023788;28;20650;-69
2021/01/02 01:03:00;;;;;;;39.27;26.30;;;5.90;99.90;;;;;;5027602;28;21278;-69
2021/01/02 01:05:51;;;;;;;38.57;26.83;;;5.90;99.90;;;;;;5032662;28;20693;-69
2021/01/02 01:08:42;;;;;;;39.60;25.30;;;5.90;99.90;;;;;;5040031;28;20670;-69
2021/01/02 01:11:33;;;;;;;35.70;25.10;;;6.00;99.90;;;;;;5026091;28;20636;-69
2021/01/02 01:14:17;;;;;;;40.13;27.20;;;6.00;99.90;;;;;;5028707;28;21308;-70
2021/01/02 01:17:03;;;;;;;36.70;26.03;;;5.90;99.90;;;;;;5025714;28;20652;-70
2021/01/02 01:19:53;;;;;;;34.20;25.00;;;5.80;99.90;;;;;;5033481;28;20661;-69
2021/01/02 01:22:42;;;;;;;37.03;26.50;;;5.90;99.90;;;;;;5029801;28;20633;-69
2021/01/02 01:25:46;;;;;;;35.07;24.63;;;6.00;99.90;;;;;;5033670;28;20633;-69
2021/01/02 01:28:36;;;;;;;36.87;24.90;;;6.00;99.90;;;;;;5007983;28;20973;-69
2021/01/02 01:31:22;;;;;;;39.33;27.67;;;5.90;99.90;;;;;;5038560;28;20624;-69
2021/01/02 01:34:10;;;;;;;37.83;24.40;;;5.80;99.90;;;;;;5031652;28;20651;-69
2021/01/02 01:36:55;;;;;;;38.63;26.17;;;5.90;99.90;;;;;;5044071;28;20594;-70
2021/01/02 01:39:43;;;;;;;38.87;24.43;;;5.90;99.90;;;;;;5053224;28;20665;-69
2021/01/02 01:42:42;;;;;;;37.60;26.27;;;5.80;99.90;;;;;;5022374;28;20630;-69
2021/01/02 01:45:39;;;;;;;36.50;24.30;;;5.80;99.90;;;;;;5024613;28;20634;-69
2021/01/02 01:48:25;;;;;;;36.13;25.37;;;5.80;99.90;;;;;;5033201;28;20663;-69
2021/01/02 01:51:28;;;;;;;30.80;23.63;;;5.80;99.90;;;;;;5034507;28;21023;-69
2021/01/02 01:54:50;;;;;;;36.53;25.23;;;5.70;99.90;;;;;;5031174;28;20638;-70
2021/01/02 01:57:37;;;;;;;38.40;24.30;;;5.70;99.90;;;;;;5034717;28;20591;-69
2021/01/02 02:00:42;;;;;;;36.80;25.43;;;5.60;99.90;;;;;;5030030;28;21007;-69
2021/01/02 02:03:33;;;;;;;35.80;25.47;;;5.60;99.90;;;;;;5031519;28;21213;-69
2021/01/02 02:06:29;;;;;;;34.93;24.50;;;5.60;99.90;;;;;;5044605;28;20660;-69
2021/01/02 02:09:20;;;;;;;32.83;24.30;;;5.60;99.90;;;;;;5030582;28;20645;-69
2021/01/02 02:12:15;;;;;;;36.10;24.33;;;5.60;99.90;;;;;;5045091;28;20577;-69
2021/01/02 02:14:59;;;;;;;35.83;25.43;;;5.60;99.90;;;;;;5026836;28;22233;-69
2021/01/02 02:17:45;;;;;;;34.07;24.37;;;5.70;99.90;;;;;;5042418;28;20715;-69
2021/01/02 02:20:31;;;;;;;31.03;23.90;;;5.60;99.90;;;;;;5023715;28;20657;-69
2021/01/02 02:23:21;;;;;;;36.03;24.10;;;5.70;99.90;;;;;;5023582;28;20650;-69
2021/01/02 02:26:07;;;;;;;33.07;24.63;;;5.70;99.90;;;;;;5045810;28;20637;-69
2021/01/02 02:29:12;;;;;;;32.70;23.60;;;5.50;99.90;;;;;;5021212;28;20697;-69
2021/01/02 02:32:08;;;;;;;31.80;23.90;;;5.50;99.90;;;;;;5029673;28;20629;-69
2021/01/02 02:34:53;;;;;;;33.43;23.40;;;5.50;99.90;;;;;;5037699;28;20633;-70
2021/01/02 02:37:51;;;;;;;31.53;23.60;;;5.50;99.90;;;;;;5029739;28;20606;-69
2021/01/02 02:40:36;;;;;;;34.60;23.20;;;5.50;99.90;;;;;;5035709;28;21025;-69
2021/01/02 02:43:25;;;;;;;36.37;25.47;;;5.50;99.90;;;;;;5035491;28;20626;-69
2021/01/02 02:46:20;;;;;;;35.40;25.27;;;5.40;99.90;;;;;;5031745;28;20618;-69
2021/01/02 02:49:11;;;;;;;32.93;24.40;;;5.50;99.90;;;;;;5035176;28;21122;-69
2021/01/02 02:52:33;;;;;;;31.43;23.37;;;5.50;99.90;;;;;;5036084;28;20625;-69
2021/01/02 02:55:17;;;;;;;34.53;24.30;;;5.60;99.90;;;;;;5030390;28;20800;-69
2021/01/02 02:58:03;;;;;;;37.87;25.33;;;5.60;99.90;;;;;;5042031;28;20586;-69
2021/01/02 03:00:47;;;;;;;28.83;22.70;;;5.60;99.90;;;;;;5031398;28;20645;-69
2021/01/02 03:03:32;;;;;;;32.90;22.63;;;5.60;99.90;;;;;;5022050;28;20697;-69
2021/01/02 03:06:16;;;;;;;32.93;23.93;;;5.70;99.90;;;;;;5023533;28;20629;-69
2021/01/02 03:09:01;;;;;;;35.33;22.60;;;5.70;99.90;;;;;;5045475;28;20631;-69
2021/01/02 03:11:45;;;;;;;33.70;23.60;;;5.70;99.90;;;;;;5042157;28;20765;-69
2021/01/02 03:14:30;;;;;;;33.47;24.70;;;5.70;99.90;;;;;;5036961;28;20621;-69
2021/01/02 03:17:15;;;;;;;35.20;23.97;;;5.70;99.90;;;;;;5024113;28;20630;-69
2021/01/02 03:19:59;;;;;;;32.30;24.60;;;5.60;99.90;;;;;;5041522;28;20645;-69
2021/01/02 03:22:45;;;;;;;33.40;24.57;;;5.50;99.90;;;;;;5023172;28;20708;-69
2021/01/02 03:25:30;;;;;;;33.53;24.80;;;5.60;99.90;;;;;;5031624;28;20672;-69
2021/01/02 03:28:15;;;;;;;35.93;24.90;;;5.60;99.90;;;;;;5026628;28;20754;-69
2021/01/02 03:30:59;;;;;;;35.03;24.83;;;5.60;99.90;;;;;;5015850;28;20672;-68
2021/01/02 03:33:44;;;;;;;36.17;25.13;;;5.60;99.90;;;;;;5029130;28;20638;-68
2021/01/02 03:36:28;;;;;;;32.10;24.83;;;5.60;99.90;;;;;;5052033;28;20590;-68
2021/01/02 03:39:13;;;;;;;34.60;23.70;;;5.60;99.90;;;;;;5046688;28;20710;-68
2021/01/02 03:41:58;;;;;;;31.57;23.13;;;5.60;99.90;;;;;;5069139;28;20590;-68
2021/01/02 03:44:42;;;;;;;35.33;25.40;;;5.50;99.90;;;;;;5055825;28;20648;-68
2021/01/02 03:47:27;;;;;;;36.90;25.33;;;5.40;99.90;;;;;;5063711;28;21101;-68
2021/01/02 03:50:13;;;;;;;34.50;25.10;;;5.40;99.90;;;;;;5044690;28;20645;-68
2021/01/02 03:52:57;;;;;;;35.10;24.57;;;5.50;99.90;;;;;;5038299;28;20635;-68
2021/01/02 03:55:45;;;;;;;36.50;25.77;;;5.50;99.90;;;;;;5051885;28;20649;-68
2021/01/02 03:58:30;;;;;;;33.60;23.77;;;5.50;99.90;;;;;;5025429;28;21382;-68
2021/01/02 04:01:14;;;;;;;36.13;25.40;;;5.50;99.90;;;;;;5024696;28;20702;-68
2021/01/02 04:03:59;;;;;;;33.50;24.90;;;5.50;99.90;;;;;;5044707;28;20645;-68
2021/01/02 04:06:43;;;;;;;36.57;25.17;;;5.50;99.90;;;;;;5051938;28;20634;-68
2021/01/02 04:09:28;;;;;;;38.27;25.90;;;5.40;99.90;;;;;;5037560;28;20715;-68
2021/01/02 04:12:12;;;;;;;35.57;25.20;;;5.50;99.90;;;;;;5033608;28;20626;-68
2021/01/02 04:14:57;;;;;;;35.27;24.27;;;5.60;99.90;;;;;;5034734;28;20721;-68
2021/01/02 04:17:43;;;;;;;30.87;23.20;;;5.60;99.90;;;;;;5053197;28;20625;-68
2021/01/02 04:20:28;;;;;;;34.17;24.30;;;5.50;99.90;;;;;;5035345;28;20806;-68
2021/01/02 04:23:13;;;;;;;34.30;24.30;;;5.50;99.90;;;;;;5019513;28;21262;-69
2021/01/02 04:25:57;;;;;;;37.13;23.90;;;5.50;99.90;;;;;;5025459;28;21129;-68
2021/01/02 04:28:42;;;;;;;33.70;23.63;;;5.60;99.90;;;;;;5026344;28;20590;-68
2021/01/02 04:31:38;;;;;;;33.10;23.00;;;5.60;99.90;;;;;;5046453;28;20601;-68
2021/01/02 04:34:22;;;;;;;31.90;23.20;;;5.50;99.90;;;;;;5009382;28;20806;-68
2021/01/02 04:37:08;;;;;;;32.03;23.27;;;5.70;99.90;;;;;;5045602;28;20586;-68
2021/01/02 04:39:53;;;;;;;35.33;23.80;;;5.70;99.90;;;;;;5033413;28;20704;-68
2021/01/02 04:42:40;;;;;;;32.00;22.03;;;5.70;99.90;;;;;;5031732;28;20689;-68
2021/01/02 04:45:25;;;;;;;35.70;23.00;;;5.70;99.90;;;;;;5020719;28;20662;-68
2021/01/02 04:48:09;;;;;;;35.60;22.83;;;5.70;99.90;;;;;;5033545;28;20720;-68
2021/01/02 04:50:59;;;;;;;34.93;23.30;;;5.70;99.90;;;;;;5018553;28;20748;-68
2021/01/02 04:53:46;;;;;;;29.77;21.83;;;5.60;99.90;;;;;;5021118;28;20641;-68
2021/01/02 04:56:36;;;;;;;31.00;21.50;;;5.70;99.90;;;;;;5038435;28;20574;-69
2021/01/02 04:59:28;;;;;;;31.47;22.13;;;5.80;99.90;;;;;;5029227;28;20778;-68
2021/01/02 05:02:13;;;;;;;32.27;21.77;;;5.80;99.90;;;;;;5028546;28;20672;-68
2021/01/02 05:04:58;;;;;;;31.67;22.20;;;5.80;99.90;;;;;;5030043;28;20632;-68
2021/01/02 05:07:43;;;;;;;32.00;20.77;;;5.90;99.90;;;;;;5031928;28;20979;-68
2021/01/02 05:10:28;;;;;;;29.13;21.20;;;5.80;99.90;;;;;;5046940;28;21218;-68
2021/01/02 05:13:13;;;;;;;31.20;20.77;;;5.80;99.90;;;;;;5028855;28;20749;-68
2021/01/02 05:16:15;;;;;;;29.10;21.10;;;5.70;99.90;;;;;;5034974;28;20582;-68
2021/01/02 05:19:08;;;;;;;35.37;24.50;;;5.70;99.90;;;;;;5034244;28;21164;-68
2021/01/02 05:21:53;;;;;;;30.80;21.13;;;5.70;99.90;;;;;;5033420;28;20597;-68
2021/01/02 05:24:37;;;;;;;30.90;21.03;;;5.80;99.90;;;;;;5021895;28;20645;-68
2021/01/02 05:27:31;;;;;;;32.73;22.50;;;5.80;99.90;;;;;;5046858;28;20623;-68
2021/01/02 05:30:28;;;;;;;30.07;22.00;;;5.70;99.90;;;;;;5035993;28;21018;-68
2021/01/02 05:33:13;;;;;;;28.30;19.80;;;5.80;99.90;;;;;;5029276;28;20723;-68
2021/01/02 05:35:58;;;;;;;34.57;22.60;;;5.80;99.90;;;;;;5024299;28;20598;-68
2021/01/02 05:38:42;;;;;;;35.90;22.30;;;5.80;99.90;;;;;;5034916;28;20694;-68
2021/01/02 05:41:27;;;;;;;31.20;20.90;;;5.80;99.90;;;;;;5040657;28;20684;-68
2021/01/02 05:44:12;;;;;;;31.80;22.60;;;5.90;99.90;;;;;;5047488;28;20777;-68
2021/01/02 05:46:57;;;;;;;30.80;20.47;;;5.80;99.90;;;;;;5031084;28;21298;-68
2021/01/02 05:49:47;;;;;;;33.50;22.70;;;5.90;99.90;;;;;;5022858;28;20669;-68
2021/01/02 05:52:33;;;;;;;30.20;20.53;;;5.90;99.90;;;;;;5024024;28;21891;-68
2021/01/02 05:55:30;;;;;;;31.83;22.67;;;5.90;99.90;;;;;;5023541;28;20593;-68
2021/01/02 05:58:16;;;;;;;32.10;21.53;;;5.90;99.90;;;;;;5029626;28;20704;-68
2021/01/02 06:01:07;;;;;;;35.07;22.80;;;5.90;99.90;;;;;;5029760;28;20681;-68
2021/01/02 06:03:51;;;;;;;31.80;21.40;;;6.00;99.90;;;;;;5021633;28;20682;-68
2021/01/02 06:06:36;;;;;;;33.10;23.07;;;5.90;99.90;;;;;;5036801;28;20787;-68
2021/01/02 06:09:20;;;;;;;30.67;22.00;;;5.90;99.90;;;;;;5031409;28;20686;-68
2021/01/02 06:12:08;;;;;;;34.43;22.60;;;5.90;99.90;;;;;;5034381;28;20641;-68
2021/01/02 06:14:55;;;;;;;35.77;23.03;;;5.90;99.90;;;;;;5036122;28;20591;-68
2021/01/02 06:17:44;;;;;;;32.07;22.80;;;5.90;99.90;;;;;;5036980;28;20606;-68
2021/01/02 06:20:29;;;;;;;32.83;23.60;;;5.90;99.90;;;;;;5042643;28;20661;-68
2021/01/02 06:23:17;;;;;;;36.33;24.03;;;5.90;99.90;;;;;;5022537;28;20638;-68
2021/01/02 06:26:04;;;;;;;38.73;24.10;;;5.90;99.90;;;;;;5019502;28;20688;-68
2021/01/02 06:28:49;;;;;;;30.90;22.70;;;5.90;99.90;;;;;;5016148;28;20574;-68
2021/01/02 06:31:34;;;;;;;34.40;22.90;;;5.90;99.90;;;;;;5034783;28;20601;-68
2021/01/02 06:34:20;;;;;;;37.60;24.77;;;5.90;99.90;;;;;;5035128;28;20637;-69
2021/01/02 06:37:05;;;;;;;37.20;24.60;;;6.00;99.90;;;;;;5031295;28;20625;-69
2021/01/02 06:40:18;;;;;;;37.17;23.20;;;6.00;99.90;;;;;;5012610;28;21024;-68
2021/01/02 06:43:12;;;;;;;34.10;23.50;;;6.00;99.90;;;;;;5044209;28;21031;-68
2021/01/02 06:45:59;;;;;;;33.63;22.27;;;6.00;99.90;;;;;;5032409;28;20645;-68
2021/01/02 06:48:43;;;;;;;36.60;23.60;;;5.90;99.90;;;;;;5031484;28;20638;-68
2021/01/02 06:51:29;;;;;;;36.30;23.70;;;6.00;99.90;;;;;;5022620;28;21200;-68
2021/01/02 06:54:23;;;;;;;38.13;24.83;;;6.00;99.90;;;;;;5023275;28;20634;-68
2021/01/02 06:57:07;;;;;;;36.23;23.47;;;6.00;99.90;;;;;;5028419;28;20642;-68
2021/01/02 06:59:52;;;;;;;33.93;23.00;;;6.00;99.90;;;;;;5038194;28;21302;-68
2021/01/02 07:02:36;;;;;;;34.60;22.70;;;6.00;99.90;;;;;;5029340;28;20669;-69
2021/01/02 07:05:49;;;;;;;36.00;22.50;;;6.20;99.90;;;;;;5014864;28;20669;-68
2021/01/02 07:08:43;;;;;;;33.63;22.60;;;6.10;99.90;;;;;;5004565;28;20632;-68
2021/01/02 07:11:36;;;;;;;33.50;22.90;;;6.10;99.90;;;;;;5029580;28;21176;-68
2021/01/02 07:14:24;;;;;;;34.07;23.27;;;6.10;99.90;;;;;;5025406;28;21243;-68
2021/01/02 07:17:11;;;;;;;38.70;24.30;;;6.10;99.90;;;;;;5012875;28;20589;-69
2021/01/02 07:20:05;;;;;;;32.53;23.83;;;6.00;99.90;;;;;;5023211;28;20665;-68
2021/01/02 07:22:59;;;;;;;35.77;22.37;;;6.00;99.90;;;;;;5026755;28;20626;-69
2021/01/02 07:25:43;;;;;;;34.70;22.50;;;6.10;99.90;;;;;;5029638;28;20676;-68
2021/01/02 07:28:28;;;;;;;30.00;22.07;;;6.10;99.90;;;;;;5034792;28;20589;-67
2021/01/02 07:31:16;;;;;;;34.00;23.77;;;6.20;99.90;;;;;;5030018;28;20630;-69
2021/01/02 07:34:00;;;;;;;39.93;24.03;;;6.10;99.90;;;;;;5035509;28;20626;-68
2021/01/02 07:36:45;;;;;;;36.80;24.73;;;6.10;99.90;;;;;;5033984;28;20632;-68
2021/01/02 07:39:30;;;;;;;37.10;25.83;;;6.10;99.90;;;;;;5033776;28;20653;-68
2021/01/02 07:42:15;;;;;;;33.80;23.90;;;6.10;99.90;;;;;;5036742;28;20725;-68
2021/01/02 07:45:01;;;;;;;38.47;25.23;;;6.10;99.90;;;;;;5034875;28;20605;-68
2021/01/02 07:47:47;;;;;;;38.80;24.53;;;6.10;99.90;;;;;;5026293;28;21021;-68
2021/01/02 07:50:32;;;;;;;35.37;24.33;;;6.10;99.90;;;;;;5039914;28;20781;-68
2021/01/02 07:53:16;;;;;;;36.70;24.23;;;6.00;99.90;;;;;;5024600;28;20659;-67
2021/01/02 07:56:01;;;;;;;36.60;23.57;;;6.00;99.90;;;;;;5044482;28;20699;-68
2021/01/02 07:58:45;;;;;;;35.50;23.43;;;6.00;99.90;;;;;;5039982;28;20637;-68
2021/01/02 08:01:30;;;;;;;32.70;22.73;;;6.10;99.90;;;;;;5018274;28;21289;-68
2021/01/02 08:04:15;;;;;;;34.70;22.70;;;6.10;99.90;;;;;;5009959;28;21106;-69
2021/01/02 08:07:01;;;;;;;35.63;24.10;;;6.10;99.90;;;;;;5015951;28;21242;-68
2021/01/02 08:09:47;;;;;;;35.17;23.13;;;6.00;99.90;;;;;;5028926;28;21119;-67
2021/01/02 08:12:32;;;;;;;34.60;23.53;;;6.00;99.90;;;;;;5023752;28;22865;-68
2021/01/02 08:15:26;;;;;;;36.83;23.40;;;6.10;99.90;;;;;;5029211;28;20646;-67
2021/01/02 08:18:11;;;;;;;34.43;23.47;;;6.00;99.90;;;;;;5031728;28;20598;-69
2021/01/02 08:21:05;;;;;;;34.17;22.47;;;5.90;99.90;;;;;;5045460;28;21009;-67
2021/01/02 08:23:50;;;;;;;32.87;22.53;;;5.90;99.90;;;;;;5024180;28;20662;-68
2021/01/02 08:26:34;;;;;;;33.70;23.10;;;5.80;99.90;;;;;;5033822;28;21183;-68
2021/01/02 08:29:19;;;;;;;39.67;24.40;;;5.80;99.90;;;;;;5045921;28;20724;-67
2021/01/02 08:32:10;;;;;;;37.47;24.50;;;5.80;99.90;;;;;;5014040;28;20610;-67
2021/01/02 08:34:54;;;;;;;43.80;25.13;;;5.80;99.90;;;;;;5024179;28;20969;-67
2021/01/02 08:37:39;;;;;;;39.83;24.23;;;5.80;99.90;;;;;;5043930;28;20590;-68
2021/01/02 08:40:23;;;;;;;38.17;24.40;;;5.80;99.90;;;;;;5026844;28;20669;-68
2021/01/02 08:43:21;;;;;;;37.43;23.97;;;5.80;99.90;;;;;;5030074;28;20692;-67
2021/01/02 08:46:09;;;;;;;37.60;24.50;;;5.80;99.90;;;;;;5037545;28;20666;-68
2021/01/02 08:48:53;;;;;;;37.10;23.00;;;5.90;99.90;;;;;;5045414;28;20594;-67
2021/01/02 08:51:38;;;;;;;41.50;25.23;;;5.80;99.90;;;;;;5029564;28;20593;-67
2021/01/02 08:54:26;;;;;;;41.20;25.20;;;5.80;99.90;;;;;;5024490;28;21269;-69
2021/01/02 08:57:31;;;;;;;42.43;24.87;;;5.80;99.90;;;;;;5045764;28;21164;-68
2021/01/02 09:00:21;;;;;;;38.70;24.87;;;5.90;99.90;;;;;;5022658;28;21119;-68
2021/01/02 09:03:08;;;;;;;42.50;24.87;;;5.90;99.90;;;;;;5017312;28;21255;-68
2021/01/02 09:05:53;;;;;;;42.00;25.70;;;5.80;99.90;;;;;;5051688;28;20686;-68
2021/01/02 09:08:37;;;;;;;40.63;25.53;;;5.90;99.90;;;;;;5033549;28;20629;-68
2021/01/02 09:11:22;;;;;;;39.00;25.63;;;5.90;99.90;;;;;;5028149;28;20622;-68
2021/01/02 09:14:07;;;;;;;41.50;24.80;;;5.90;99.90;;;;;;5027526;28;21001;-68
2021/01/02 09:17:02;;;;;;;40.13;25.60;;;5.80;99.90;;;;;;5032593;28;20621;-68
2021/01/02 09:19:47;;;;;;;40.80;24.97;;;5.90;99.90;;;;;;5031365;28;20677;-68
2021/01/02 09:22:32;;;;;;;44.93;25.97;;;5.90;99.90;;;;;;5029277;28;21289;-68
2021/01/02 09:25:18;;;;;;;39.33;25.43;;;6.00;99.90;;;;;;5039469;28;20789;-69
2021/01/02 09:28:40;;;;;;;38.30;23.70;;;5.90;99.90;;;;;;5032839;28;20765;-69
2021/01/02 09:31:25;;;;;;;38.87;24.37;;;5.90;99.90;;;;;;4972320;22;20710;-70
2021/01/02 09:34:11;;;;;;;42.07;26.10;;;6.00;99.90;;;;;;4907667;28;21365;-73
2021/01/02 09:36:55;;;;;;;39.30;24.33;;;6.00;99.90;;;;;;4916107;28;20584;-74
2021/01/02 09:40:17;;;;;;;38.30;23.80;;;6.00;99.90;;;;;;4905796;28;20966;-75
2021/01/02 09:43:03;;;;;;;41.90;24.10;;;6.00;99.90;;;;;;4977238;28;20636;-74
2021/01/02 09:45:47;;;;;;;38.70;23.83;;;6.00;99.90;;;;;;4988161;28;20612;-74
2021/01/02 09:48:34;;;;;;;39.30;24.50;;;6.00;99.90;;;;;;4988188;28;21079;-73
2021/01/02 09:51:22;;;;;;;39.90;25.10;;;6.10;99.90;;;;;;4990894;28;20704;-72
2021/01/02 09:54:07;;;;;;;37.60;24.10;;;6.10;99.90;;;;;;4981429;28;21011;-73
2021/01/02 09:56:51;;;;;;;36.47;23.43;;;6.20;99.90;;;;;;4983580;28;20604;-74
2021/01/02 09:59:38;;;;;;;36.50;24.43;;;6.10;99.90;;;;;;4982988;28;20652;-74
2021/01/02 10:02:22;;;;;;;37.07;23.87;;;6.10;99.90;;;;;;4972729;28;20728;-73
2021/01/02 10:05:08;;;;;;;40.27;24.40;;;6.10;99.90;;;;;;4996699;28;20620;-73
2021/01/02 10:07:56;;;;;;;38.20;24.17;;;6.20;99.90;;;;;;4988109;28;20659;-71
2021/01/02 10:10:40;;;;;;;37.50;24.07;;;6.20;99.90;;;;;;5000808;28;20756;-71
2021/01/02 10:13:25;;;;;;;39.60;23.57;;;6.20;99.90;;;;;;4980094;28;20660;-71
2021/01/02 10:16:09;;;;;;;35.90;23.30;;;6.20;99.90;;;;;;4984011;28;20615;-75
2021/01/02 10:18:54;;;;;;;37.67;22.40;;;6.30;99.90;;;;;;4995779;28;20604;-73
2021/01/02 10:21:38;;;;;;;33.37;21.80;;;6.30;99.90;;;;;;4987135;28;20931;-72
2021/01/02 10:24:23;;;;;;;36.43;23.70;;;6.30;99.90;;;;;;4984878;28;20758;-71
2021/01/02 10:27:08;;;;;;;35.77;23.20;;;6.30;99.90;;;;;;4988989;28;20660;-75
2021/01/02 10:29:55;;;;;;;35.57;22.57;;;6.30;99.90;;;;;;4981266;28;20705;-71
2021/01/02 10:32:41;;;;;;;36.63;23.00;;;6.30;99.90;;;;;;4992179;28;20730;-71
2021/01/02 10:35:26;;;;;;;36.10;22.07;;;6.40;99.90;;;;;;4976496;28;20604;-71
2021/01/02 10:38:11;;;;;;;34.70;23.17;;;6.40;99.90;;;;;;4982148;28;20637;-72
2021/01/02 10:40:56;;;;;;;34.73;23.40;;;6.40;99.90;;;;;;4980080;28;20804;-72
2021/01/02 10:43:40;;;;;;;31.30;20.83;;;6.30;99.90;;;;;;4992316;28;20655;-71
2021/01/02 10:46:24;;;;;;;36.37;21.67;;;6.40;99.90;;;;;;4982165;28;20589;-71
2021/01/02 10:49:09;;;;;;;30.90;21.70;;;6.50;99.90;;;;;;4988053;28;20655;-71
2021/01/02 10:51:54;;;;;;;33.53;21.27;;;6.40;99.90;;;;;;4993342;28;20688;-72
2021/01/02 10:54:42;;;;;;;34.50;21.27;;;6.40;99.90;;;;;;4998696;28;21257;-72
2021/01/02 10:57:27;;;;;;;29.43;18.70;;;6.40;99.90;;;;;;4984353;28;20601;-71
2021/01/02 11:00:13;;;;;;;30.43;20.40;;;6.40;99.90;;;;;;4981355;28;21279;-71
2021/01/02 11:02:57;;;;;;;28.23;19.73;;;6.30;99.90;;;;;;4991546;28;20726;-71
2021/01/02 11:05:42;;;;;;;30.63;20.77;;;6.30;99.90;;;;;;4992231;28;21204;-70
2021/01/02 11:08:26;;;;;;;29.93;21.90;;;6.30;99.90;;;;;;5002124;28;20644;-70
2021/01/02 11:11:20;;;;;;;27.87;19.30;;;6.40;99.90;;;;;;4975838;28;20648;-70
2021/01/02 11:14:05;;;;;;;28.07;19.13;;;6.50;99.90;;;;;;4984309;28;20636;-71
2021/01/02 11:16:50;;;;;;;28.67;18.60;;;6.40;99.90;;;;;;4991363;28;20632;-71
2021/01/02 11:19:35;;;;;;;31.23;20.90;;;6.40;99.90;;;;;;4967084;28;20731;-71
2021/01/02 11:22:19;;;;;;;31.27;21.40;;;6.50;99.90;;;;;;4996229;28;20643;-71
2021/01/02 11:25:04;;;;;;;30.30;21.13;;;6.50;99.90;;;;;;5002532;28;20675;-71
2021/01/02 11:27:49;;;;;;;30.73;21.63;;;6.50;99.90;;;;;;4988703;28;20624;-71
2021/01/02 11:30:33;;;;;;;36.43;22.87;;;6.50;99.90;;;;;;4983434;28;20672;-72
2021/01/02 11:33:18;;;;;;;33.77;21.97;;;6.50;99.90;;;;;;4983396;28;20648;-71
2021/01/02 11:36:03;;;;;;;33.80;22.27;;;6.40;99.90;;;;;;4985944;28;20605;-71
2021/01/02 11:38:48;;;;;;;30.90;21.50;;;6.40;99.90;;;;;;4981692;28;21142;-71
2021/01/02 11:41:35;;;;;;;29.50;20.03;;;6.40;99.90;;;;;;4993422;28;21289;-71
2021/01/02 11:44:26;;;;;;;32.80;22.60;;;6.40;99.90;;;;;;4980984;28;20644;-71
2021/01/02 11:47:11;;;;;;;35.50;23.00;;;6.40;99.90;;;;;;4966765;28;20673;-71
2021/01/02 11:49:55;;;;;;;40.13;22.60;;;6.30;99.90;;;;;;4977919;28;20616;-71
2021/01/02 11:52:40;;;;;;;32.03;21.93;;;6.40;99.90;;;;;;4979570;28;20652;-71
2021/01/02 11:55:25;;;;;;;35.20;23.17;;;6.40;99.90;;;;;;4990779;28;20707;-71
2021/01/02 11:58:09;;;;;;;31.17;20.10;;;6.40;99.90;;;;;;4969857;28;20723;-71
2021/01/02 12:00:54;;;;;;;34.97;22.23;;;6.40;99.90;;;;;;4982171;28;20687;-70
2021/01/02 12:03:38;;;;;;;33.80;21.67;;;6.40;99.90;;;;;;4994900;28;20654;-70
2021/01/02 12:06:28;;;;;;;32.10;21.03;;;6.40;99.90;;;;;;4981496;28;21124;-71
2021/01/02 12:09:14;;;;;;;35.33;22.43;;;6.30;99.90;;;;;;4985156;28;21061;-71
2021/01/02 12:11:59;;;;;;;37.47;23.37;;;6.30;99.90;;;;;;4996054;28;21222;-70
2021/01/02 12:14:44;;;;;;;32.87;21.57;;;6.40;99.90;;;;;;4988020;28;20800;-72
2021/01/02 12:17:29;;;;;;;30.03;20.20;;;6.40;99.90;;;;;;4987943;28;20830;-71
2021/01/02 12:20:14;;;;;;;31.47;20.90;;;6.40;99.90;;;;;;4987222;28;20620;-71
2021/01/02 12:22:58;;;;;;;31.33;20.77;;;6.50;99.90;;;;;;4978385;28;20719;-71
2021/01/02 12:25:43;;;;;;;32.43;20.87;;;6.60;99.90;;;;;;4986679;28;21053;-70
2021/01/02 12:28:27;;;;;;;28.77;19.60;;;6.60;99.90;;;;;;4987472;28;20628;-71
2021/01/02 12:31:24;;;;;;;26.23;18.87;;;6.60;99.90;;;;;;4970322;28;20798;-70
2021/01/02 12:34:08;;;;;;;28.30;18.97;;;6.70;99.90;;;;;;4979308;28;21295;-73
2021/01/02 12:36:55;;;;;;;24.90;16.97;;;6.70;99.90;;;;;;4988861;28;20581;-73
2021/01/02 12:39:41;;;;;;;25.60;16.13;;;6.70;99.90;;;;;;4991342;28;21106;-71
2021/01/02 12:42:26;;;;;;;23.20;16.47;;;6.90;99.90;;;;;;4982870;28;20742;-70
2021/01/02 12:45:12;;;;;;;26.27;17.00;;;6.90;99.90;;;;;;4984342;28;20660;-71
2021/01/02 12:47:56;;;;;;;24.33;17.13;;;6.90;99.90;;;;;;4989190;28;21159;-71
2021/01/02 12:50:41;;;;;;;26.80;17.90;;;6.80;99.90;;;;;;4975132;28;20686;-71
2021/01/02 12:53:25;;;;;;;24.63;18.53;;;6.80;99.90;;;;;;4982350;28;20720;-71
2021/01/02 12:56:10;;;;;;;27.30;18.30;;;6.80;99.90;;;;;;4987281;28;21246;-72
2021/01/02 12:58:54;;;;;;;27.10;19.57;;;6.70;99.90;;;;;;4999796;28;20697;-72
2021/01/02 13:01:40;;;;;;;30.63;18.97;;;6.60;99.90;;;;;;4988026;28;20895;-71
2021/01/02 13:04:25;;;;;;;31.40;20.27;;;6.70;99.90;;;;;;4999625;28;20676;-71
2021/01/02 13:07:11;;;;;;;29.73;19.83;;;6.70;99.90;;;;;;5000133;28;20699;-72
2021/01/02 13:09:55;;;;;;;33.97;19.83;;;6.70;99.90;;;;;;4984964;28;20635;-72
2021/01/02 13:12:40;;;;;;;32.20;18.87;;;6.80;99.90;;;;;;4978921;28;20644;-72
2021/01/02 13:15:24;;;;;;;28.37;18.60;;;6.70;99.90;;;;;;4984869;28;20950;-73
2021/01/02 13:18:09;;;;;;;27.43;18.37;;;6.60;99.90;;;;;;4988097;28;20631;-71
2021/01/02 13:20:54;;;;;;;28.10;18.87;;;6.70;99.90;;;;;;4980460;28;20649;-72
2021/01/02 13:23:39;;;;;;;26.67;18.67;;;6.60;99.90;;;;;;4984833;28;20640;-74
2021/01/02 13:26:24;;;;;;;28.53;19.73;;;6.60;99.90;;;;;;4987836;28;20595;-71
2021/01/02 13:29:09;;;;;;;25.60;17.10;;;6.60;99.90;;;;;;4982634;28;20727;-72
2021/01/02 13:31:54;;;;;;;26.03;17.30;;;6.60;99.90;;;;;;4984715;28;20815;-71
2021/01/02 13:34:40;;;;;;;26.37;17.03;;;6.60;99.90;;;;;;4984330;28;20644;-72
2021/01/02 13:37:24;;;;;;;24.63;16.17;;;6.70;99.90;;;;;;4998370;28;20628;-74
2021/01/02 13:40:09;;;;;;;24.97;16.87;;;6.70;99.90;;;;;;4993471;28;21210;-74
2021/01/02 13:42:54;;;;;;;24.80;16.07;;;6.70;99.90;;;;;;4983550;28;20632;-73
2021/01/02 13:45:38;;;;;;;25.13;16.60;;;6.70;99.90;;;;;;4978391;28;21259;-75
2021/01/02 13:48:23;;;;;;;23.07;16.20;;;6.70;99.90;;;;;;5004386;28;20955;-73
2021/01/02 13:51:10;;;;;;;24.27;16.20;;;6.70;99.90;;;;;;4986168;28;20684;-74
2021/01/02 13:53:54;;;;;;;28.63;18.40;;;6.70;99.90;;;;;;4982100;28;20802;-74
2021/01/02 13:56:43;;;;;;;27.10;18.03;;;6.70;99.90;;;;;;4985223;28;20593;-72
2021/01/02 13:59:28;;;;;;;27.20;18.00;;;6.70;99.90;;;;;;4986718;28;20777;-72
2021/01/02 14:02:13;;;;;;;23.80;17.47;;;6.70;99.90;;;;;;4982545;28;20804;-72
2021/01/02 14:04:59;;;;;;;26.77;16.77;;;6.70;99.90;;;;;;4984118;28;20645;-71
2021/01/02 14:07:45;;;;;;;28.30;17.67;;;6.70;99.90;;;;;;4979157;28;20765;-73
2021/01/02 14:10:30;;;;;;;25.60;17.60;;;6.70;99.90;;;;;;4998232;28;20647;-74
2021/01/02 14:13:15;;;;;;;24.57;18.27;;;6.70;99.90;;;;;;4977976;28;20637;-72
2021/01/02 14:15:59;;;;;;;30.60;18.70;;;6.70;99.90;;;;;;4981477;28;20625;-73
2021/01/02 14:18:44;;;;;;;27.93;18.10;;;6.70;99.90;;;;;;4991307;28;20756;-72
2021/01/02 14:21:29;;;;;;;29.80;19.53;;;6.70;99.90;;;;;;4980604;28;20759;-73